Time;durP1;ratioP1;P1;durP2;ratioP2;P2;SDS_P1;SDS_P2;PMS_P1;PMS_P2;Temp;Humidity;BMP_temperature;BMP_pressure;BME280_temperature;BME280_humidity;BME280_pressure;Samples;Min_cycle;Max_cycle;Signal;HPM_P1;HPM_P2
2020/12/28 00:00:20;;;;;;;1.00;0.80;;;15.90;54.90;;;;;;4939685;29;20058;-75
2020/12/28 00:02:46;;;;;;;1.23;0.80;;;15.90;54.90;;;;;;4937322;29;20477;-74
2020/12/28 00:05:12;;;;;;;0.95;0.70;;;15.90;54.80;;;;;;4939963;29;20115;-76
2020/12/28 00:07:38;;;;;;;2.17;1.30;;;15.90;54.80;;;;;;4940308;29;20039;-73
2020/12/28 00:10:08;;;;;;;1.58;1.20;;;15.90;54.80;;;;;;4937069;29;20055;-76
2020/12/28 00:12:46;;;;;;;1.30;0.93;;;15.90;54.80;;;;;;4940228;29;20443;-73
2020/12/28 00:15:24;;;;;;;1.35;0.63;;;15.80;54.70;;;;;;4928929;29;20123;-76
2020/12/28 00:17:53;;;;;;;0.90;0.77;;;15.80;54.60;;;;;;4920519;29;20408;-74
2020/12/28 00:20:20;;;;;;;1.10;0.80;;;15.80;55.40;;;;;;4920507;29;20122;-75
2020/12/28 00:22:47;;;;;;;1.40;1.00;;;15.80;54.70;;;;;;4925542;29;20047;-74
2020/12/28 00:25:15;;;;;;;1.73;0.88;;;15.80;54.60;;;;;;4934642;29;20051;-76
2020/12/28 00:27:41;;;;;;;1.50;1.08;;;15.80;54.70;;;;;;4939541;29;20130;-75
2020/12/28 00:30:07;;;;;;;1.27;1.17;;;15.80;54.90;;;;;;4938857;29;20051;-75
2020/12/28 00:32:37;;;;;;;2.83;1.20;;;15.80;55.00;;;;;;4939392;29;20130;-76
2020/12/28 00:35:05;;;;;;;2.22;1.40;;;15.80;55.10;;;;;;4939509;29;20130;-76
2020/12/28 00:37:32;;;;;;;1.90;1.10;;;15.80;55.00;;;;;;4931956;29;20058;-76
2020/12/28 00:39:58;;;;;;;1.60;1.25;;;15.80;54.90;;;;;;4920634;29;20079;-75
2020/12/28 00:42:24;;;;;;;1.67;1.13;;;15.80;54.90;;;;;;4920517;29;20076;-75
2020/12/28 00:44:50;;;;;;;2.80;1.38;;;15.90;54.90;;;;;;4920151;29;20060;-75
2020/12/28 00:47:16;;;;;;;1.60;1.50;;;15.90;54.80;;;;;;4921018;29;20364;-77
2020/12/28 00:49:42;;;;;;;1.90;1.40;;;15.90;54.80;;;;;;4920549;29;20048;-75
2020/12/28 00:52:08;;;;;;;1.80;1.35;;;15.90;54.80;;;;;;4929126;29;20063;-73
2020/12/28 00:54:34;;;;;;;1.98;1.60;;;15.90;54.80;;;;;;4939043;29;20106;-75
2020/12/28 00:57:00;;;;;;;1.83;1.40;;;15.90;54.80;;;;;;4957250;29;20061;-76
2020/12/28 00:59:27;;;;;;;1.75;1.25;;;15.90;54.70;;;;;;4957749;29;20430;-75
2020/12/28 01:01:57;;;;;;;1.50;1.40;;;15.90;54.60;;;;;;4953138;29;20055;-73
2020/12/28 01:04:23;;;;;;;1.80;1.30;;;15.90;54.60;;;;;;4931335;29;20055;-75
2020/12/28 01:06:49;;;;;;;1.80;1.40;;;15.90;54.50;;;;;;4939175;29;20052;-73
2020/12/28 01:09:16;;;;;;;1.70;1.60;;;15.90;54.40;;;;;;4936223;29;20040;-77
2020/12/28 01:11:43;;;;;;;2.40;1.23;;;15.90;54.30;;;;;;4933927;29;20056;-75
2020/12/28 01:14:10;;;;;;;1.98;1.67;;;15.90;54.30;;;;;;4938445;29;20530;-76
2020/12/28 01:16:36;;;;;;;2.00;1.73;;;15.90;54.20;;;;;;4938684;29;20086;-77
2020/12/28 01:19:03;;;;;;;2.47;1.75;;;15.90;54.20;;;;;;4934249;29;20044;-77
2020/12/28 01:21:29;;;;;;;1.80;1.70;;;15.90;54.20;;;;;;4928274;29;20356;-75
2020/12/28 01:23:55;;;;;;;1.70;1.52;;;15.90;54.10;;;;;;4938598;29;20051;-74
2020/12/28 01:26:21;;;;;;;2.25;1.75;;;15.90;54.10;;;;;;4938697;29;20055;-76
2020/12/28 01:28:48;;;;;;;2.20;2.00;;;15.90;54.20;;;;;;4938512;29;20138;-76
2020/12/28 01:31:14;;;;;;;1.90;1.80;;;15.90;54.20;;;;;;4937363;29;20131;-73
2020/12/28 01:33:39;;;;;;;2.30;2.10;;;15.90;54.20;;;;;;4938685;29;20122;-74
2020/12/28 01:36:06;;;;;;;2.47;2.13;;;15.90;54.20;;;;;;4938681;29;20039;-73
2020/12/28 01:38:32;;;;;;;2.78;1.90;;;15.90;54.20;;;;;;4937730;29;20048;-77
2020/12/28 01:40:59;;;;;;;2.97;2.10;;;15.90;54.10;;;;;;4938324;29;20123;-73
2020/12/28 01:43:26;;;;;;;2.20;2.00;;;15.90;54.20;;;;;;4937979;29;20118;-76
2020/12/28 01:45:52;;;;;;;2.03;1.83;;;15.90;54.10;;;;;;4938718;29;20078;-74
2020/12/28 01:48:18;;;;;;;3.30;2.30;;;15.80;54.10;;;;;;4937339;29;20078;-75
2020/12/28 01:50:44;;;;;;;2.25;2.05;;;15.80;54.10;;;;;;4947001;29;20055;-76
2020/12/28 01:53:11;;;;;;;1.80;1.70;;;15.90;54.10;;;;;;4938362;29;20086;-73
2020/12/28 01:55:39;;;;;;;2.95;2.17;;;15.80;54.00;;;;;;4937422;29;20059;-76
2020/12/28 01:58:05;;;;;;;1.98;1.77;;;15.90;54.00;;;;;;4938074;29;20043;-74
2020/12/28 02:00:31;;;;;;;2.53;1.90;;;15.80;53.90;;;;;;4938349;29;20439;-74
2020/12/28 02:02:58;;;;;;;2.65;2.40;;;15.80;53.90;;;;;;4937905;29;20043;-73
2020/12/28 02:05:23;;;;;;;2.28;1.80;;;15.80;53.80;;;;;;4937441;29;20371;-74
2020/12/28 02:07:53;;;;;;;3.90;2.42;;;15.80;53.80;;;;;;4938298;29;20051;-74
2020/12/28 02:10:19;;;;;;;2.55;2.35;;;15.80;53.80;;;;;;4938721;29;20102;-74
2020/12/28 02:12:46;;;;;;;2.42;2.22;;;15.80;53.90;;;;;;4937960;29;20067;-74
2020/12/28 02:15:12;;;;;;;3.00;2.53;;;15.80;53.90;;;;;;4932910;29;20043;-77
2020/12/28 02:17:38;;;;;;;3.17;2.88;;;15.80;53.90;;;;;;4938145;29;20355;-75
2020/12/28 02:20:04;;;;;;;3.30;3.00;;;15.80;54.00;;;;;;4937288;29;20067;-74
2020/12/28 02:22:29;;;;;;;4.25;2.70;;;15.80;54.00;;;;;;4942749;29;20328;-75
2020/12/28 02:24:55;;;;;;;3.42;2.90;;;15.80;54.00;;;;;;4949688;29;20044;-74
2020/12/28 02:27:21;;;;;;;3.58;3.28;;;15.80;54.00;;;;;;4937511;29;20126;-74
2020/12/28 02:29:47;;;;;;;3.92;3.38;;;15.80;54.10;;;;;;4937567;29;20051;-74
2020/12/28 02:32:12;;;;;;;3.60;3.30;;;15.80;54.10;;;;;;4931077;29;20052;-78
2020/12/28 02:34:38;;;;;;;3.30;3.00;;;15.80;54.10;;;;;;4937876;29;20075;-76
2020/12/28 02:37:04;;;;;;;4.45;3.60;;;15.80;54.10;;;;;;4937893;29;20054;-75
2020/12/28 02:39:30;;;;;;;4.18;3.88;;;15.80;54.20;;;;;;4937502;29;20075;-75
2020/12/28 02:41:56;;;;;;;5.53;4.10;;;15.70;54.10;;;;;;4938963;29;20047;-76
2020/12/28 02:44:22;;;;;;;4.93;4.43;;;15.70;54.20;;;;;;4933531;29;20120;-76
2020/12/28 02:46:47;;;;;;;4.90;4.30;;;15.70;54.20;;;;;;4941396;29;20080;-75
2020/12/28 02:49:13;;;;;;;4.93;4.53;;;15.70;54.30;;;;;;4931946;29;20523;-76
2020/12/28 02:51:39;;;;;;;5.28;4.78;;;15.70;54.20;;;;;;4936009;29;20048;-74
2020/12/28 02:54:05;;;;;;;5.50;4.95;;;15.70;54.30;;;;;;4941321;29;20055;-75
2020/12/28 02:56:31;;;;;;;5.90;5.28;;;15.70;54.30;;;;;;4940813;29;20136;-73
2020/12/28 02:58:56;;;;;;;5.85;5.20;;;15.70;54.30;;;;;;4941109;29;20055;-76
2020/12/28 03:01:22;;;;;;;5.70;5.20;;;15.70;54.40;;;;;;4941255;29;20047;-73
2020/12/28 03:03:48;;;;;;;5.88;5.30;;;15.70;54.40;;;;;;4941029;29;20094;-77
2020/12/28 03:06:14;;;;;;;6.68;5.47;;;15.70;54.40;;;;;;4940784;29;20467;-75
2020/12/28 03:08:39;;;;;;;5.68;5.18;;;15.70;54.40;;;;;;4940409;29;20047;-75
2020/12/28 03:11:05;;;;;;;6.35;5.75;;;15.70;54.40;;;;;;4940933;29;20051;-74
2020/12/28 03:13:31;;;;;;;6.10;5.50;;;15.70;54.40;;;;;;4940861;29;20078;-75
2020/12/28 03:15:57;;;;;;;6.28;5.68;;;15.70;54.50;;;;;;4940747;29;20079;-74
2020/12/28 03:18:23;;;;;;;6.10;5.50;;;15.70;54.50;;;;;;4940570;29;20047;-77
2020/12/28 03:20:49;;;;;;;6.30;5.70;;;15.70;54.50;;;;;;4956548;29;20043;-74
2020/12/28 03:23:15;;;;;;;6.13;5.55;;;15.70;54.50;;;;;;4953816;29;20043;-76
2020/12/28 03:25:40;;;;;;;5.72;5.22;;;15.70;54.50;;;;;;4940346;29;20204;-77
2020/12/28 03:28:07;;;;;;;7.38;5.80;;;15.70;54.50;;;;;;4938586;29;20048;-74
2020/12/28 03:30:32;;;;;;;6.28;5.68;;;15.70;54.50;;;;;;4940548;29;20055;-74
2020/12/28 03:32:58;;;;;;;5.68;5.18;;;15.70;54.50;;;;;;4941270;29;20044;-76
2020/12/28 03:35:25;;;;;;;5.90;5.40;;;15.70;54.50;;;;;;4940601;29;20047;-74
2020/12/28 03:37:50;;;;;;;5.53;5.07;;;15.70;54.50;;;;;;4940902;29;20048;-76
2020/12/28 03:40:16;;;;;;;6.05;5.45;;;15.70;54.50;;;;;;4940047;29;20047;-73
2020/12/28 03:42:42;;;;;;;5.60;5.10;;;15.60;54.40;;;;;;4940754;29;20050;-75
2020/12/28 03:45:08;;;;;;;5.72;5.22;;;15.70;54.50;;;;;;4940574;29;20051;-74
2020/12/28 03:47:34;;;;;;;5.93;5.35;;;15.60;54.40;;;;;;4940312;29;20498;-75
2020/12/28 03:49:59;;;;;;;6.32;5.72;;;15.60;54.40;;;;;;4941374;29;20134;-76
2020/12/28 03:52:25;;;;;;;5.50;4.93;;;15.60;54.40;;;;;;4939483;29;20058;-73
2020/12/28 03:54:51;;;;;;;5.95;5.15;;;15.60;54.40;;;;;;4939205;29;20439;-76
2020/12/28 03:57:17;;;;;;;6.15;5.55;;;15.60;54.40;;;;;;4940211;29;20043;-76
2020/12/28 03:59:42;;;;;;;5.95;5.45;;;15.60;54.50;;;;;;4937240;29;20399;-76
2020/12/28 04:02:08;;;;;;;6.20;5.60;;;15.70;54.50;;;;;;4949281;29;20047;-73
2020/12/28 04:04:34;;;;;;;6.47;5.70;;;15.60;54.50;;;;;;4951099;29;20059;-76
2020/12/28 04:07:00;;;;;;;5.55;5.05;;;15.60;54.50;;;;;;4938118;29;20127;-76
2020/12/28 04:09:26;;;;;;;6.85;6.20;;;15.60;54.40;;;;;;4939824;29;20119;-74
2020/12/28 04:11:52;;;;;;;6.07;5.53;;;15.60;54.40;;;;;;4939907;29;20044;-75
2020/12/28 04:14:19;;;;;;;7.20;6.47;;;15.70;54.50;;;;;;4939730;29;20075;-78
2020/12/28 04:16:44;;;;;;;6.85;5.57;;;15.60;54.50;;;;;;4939615;29;20082;-76
2020/12/28 04:19:10;;;;;;;6.45;5.85;;;15.60;54.50;;;;;;4940040;29;20062;-75
2020/12/28 04:21:36;;;;;;;7.00;6.30;;;15.60;54.50;;;;;;4939946;29;20043;-75
2020/12/28 04:24:02;;;;;;;7.18;5.85;;;15.70;54.50;;;;;;4939400;29;20036;-75
2020/12/28 04:26:28;;;;;;;6.65;6.05;;;15.60;54.40;;;;;;4939967;29;20122;-75
2020/12/28 04:28:53;;;;;;;6.38;5.78;;;15.60;54.50;;;;;;4938666;29;20474;-74
2020/12/28 04:31:19;;;;;;;6.88;5.50;;;15.60;54.50;;;;;;4938477;29;20047;-75
2020/12/28 04:33:45;;;;;;;7.13;6.43;;;15.60;54.60;;;;;;4937555;29;20043;-75
2020/12/28 04:36:11;;;;;;;7.00;5.55;;;15.60;54.60;;;;;;4926820;29;20055;-75
2020/12/28 04:38:37;;;;;;;7.35;6.35;;;15.60;54.60;;;;;;4933244;29;20096;-77
2020/12/28 04:41:02;;;;;;;6.50;5.90;;;15.60;54.60;;;;;;4936126;29;20073;-76
2020/12/28 04:43:28;;;;;;;7.45;6.65;;;15.60;54.60;;;;;;4938499;29;20052;-74
2020/12/28 04:46:03;;;;;;;8.20;7.40;;;15.60;54.60;;;;;;4934627;29;20047;-75
2020/12/28 04:48:32;;;;;;;8.18;6.82;;;15.60;54.60;;;;;;4931645;29;20048;-76
2020/12/28 04:51:00;;;;;;;7.70;6.90;;;15.60;54.60;;;;;;4935701;29;20047;-75
2020/12/28 04:53:28;;;;;;;7.93;7.10;;;15.60;54.60;;;;;;4938188;29;20055;-75
2020/12/28 04:55:54;;;;;;;8.07;7.22;;;15.60;54.50;;;;;;4938256;29;20131;-74
2020/12/28 04:58:20;;;;;;;9.68;6.97;;;15.60;54.50;;;;;;4935161;29;20059;-76
2020/12/28 05:00:46;;;;;;;7.53;6.80;;;15.60;54.50;;;;;;4927820;29;20055;-77
2020/12/28 05:03:13;;;;;;;8.55;7.13;;;15.60;54.60;;;;;;4936526;29;20364;-76
2020/12/28 05:05:48;;;;;;;8.57;7.70;;;15.60;54.50;;;;;;4937688;29;20044;-75
2020/12/28 05:08:14;;;;;;;10.40;7.30;;;15.60;54.40;;;;;;4937953;29;20040;-74
2020/12/28 05:10:39;;;;;;;9.27;7.00;;;15.60;54.40;;;;;;4933270;29;20048;-77
2020/12/28 05:13:09;;;;;;;7.65;6.70;;;15.50;54.40;;;;;;4932081;29;20346;-75
2020/12/28 05:15:47;;;;;;;8.18;7.28;;;15.60;54.40;;;;;;4937716;29;20048;-75
2020/12/28 05:18:15;;;;;;;7.10;6.40;;;15.50;54.40;;;;;;4936155;29;20052;-75
2020/12/28 05:20:43;;;;;;;8.27;6.57;;;15.50;54.40;;;;;;4937125;29;20110;-76
2020/12/28 05:23:09;;;;;;;7.88;6.82;;;15.60;54.40;;;;;;4933801;29;20044;-75
2020/12/28 05:25:35;;;;;;;8.80;7.28;;;15.50;54.40;;;;;;4934482;29;20102;-74
2020/12/28 05:28:03;;;;;;;8.13;6.80;;;15.50;54.40;;;;;;4933847;29;20055;-74
2020/12/28 05:30:32;;;;;;;7.93;6.88;;;15.50;54.40;;;;;;4938536;29;20047;-76
2020/12/28 05:33:03;;;;;;;8.38;6.25;;;15.50;54.40;;;;;;4936797;29;20048;-75
2020/12/28 05:35:29;;;;;;;8.45;6.80;;;15.50;54.40;;;;;;4937648;29;20340;-77
2020/12/28 05:37:57;;;;;;;7.72;6.93;;;15.50;54.40;;;;;;4939050;29;20052;-76
2020/12/28 05:40:25;;;;;;;8.63;6.93;;;15.50;54.40;;;;;;4938697;29;20052;-77
2020/12/28 05:42:53;;;;;;;7.22;6.53;;;15.50;54.50;;;;;;4934573;29;20483;-76
2020/12/28 05:45:19;;;;;;;7.57;5.97;;;15.50;54.40;;;;;;4935327;29;20044;-78
2020/12/28 05:47:50;;;;;;;7.20;6.35;;;15.50;54.40;;;;;;4929825;29;20447;-74
2020/12/28 05:50:20;;;;;;;7.57;6.35;;;15.50;54.40;;;;;;4928948;29;20040;-74
2020/12/28 05:52:53;;;;;;;6.43;5.80;;;15.50;54.40;;;;;;4937143;29;20096;-76
2020/12/28 05:55:23;;;;;;;8.05;6.78;;;15.50;54.40;;;;;;4936445;29;20506;-75
2020/12/28 05:57:49;;;;;;;7.72;6.20;;;15.50;54.50;;;;;;4917039;29;20516;-74
2020/12/28 06:00:16;;;;;;;6.93;6.22;;;15.50;54.50;;;;;;4918692;29;20044;-74
2020/12/28 06:02:41;;;;;;;7.05;6.15;;;15.50;54.40;;;;;;4912963;29;20379;-73
2020/12/28 06:05:10;;;;;;;7.10;6.40;;;15.50;54.40;;;;;;4933552;29;20048;-74
2020/12/28 06:07:36;;;;;;;8.25;6.80;;;15.50;54.30;;;;;;4927672;29;20107;-76
2020/12/28 06:10:03;;;;;;;7.15;6.35;;;15.50;54.30;;;;;;4926621;29;20119;-74
2020/12/28 06:12:29;;;;;;;7.88;6.40;;;15.50;54.30;;;;;;4919600;29;20052;-74
2020/12/28 06:14:55;;;;;;;7.70;6.90;;;15.50;54.30;;;;;;4935177;29;20048;-76
2020/12/28 06:17:32;;;;;;;7.40;6.45;;;15.50;54.30;;;;;;4921044;29;20071;-75
2020/12/28 06:20:08;;;;;;;7.57;6.32;;;15.50;54.30;;;;;;4930365;29;20078;-73
2020/12/28 06:22:34;;;;;;;7.88;6.88;;;15.50;54.30;;;;;;4919614;29;20436;-75
2020/12/28 06:25:08;;;;;;;7.75;6.80;;;15.50;54.40;;;;;;4918537;29;20119;-75
2020/12/28 06:27:40;;;;;;;11.20;6.68;;;15.50;54.40;;;;;;4919046;29;20040;-74
2020/12/28 06:30:12;;;;;;;8.90;7.55;;;15.50;54.40;;;;;;4934822;29;20054;-75
2020/12/28 06:32:39;;;;;;;6.95;6.18;;;15.50;54.30;;;;;;4921467;29;20040;-74
2020/12/28 06:35:08;;;;;;;7.72;5.80;;;15.50;54.40;;;;;;4928178;29;20063;-76
2020/12/28 06:37:44;;;;;;;8.25;5.22;;;15.60;54.60;;;;;;4917934;29;20063;-78
2020/12/28 06:40:12;;;;;;;14.63;5.53;;;15.60;54.50;;;;;;4918754;29;20044;-79
2020/12/28 06:42:39;;;;;;;12.90;5.60;;;15.70;54.70;;;;;;4906144;29;20055;-75
2020/12/28 06:45:13;;;;;;;16.38;5.43;;;15.70;54.80;;;;;;4914716;29;20120;-75
2020/12/28 06:47:39;;;;;;;18.70;6.78;;;15.80;55.20;;;;;;4918856;29;20348;-78
2020/12/28 06:50:06;;;;;;;15.80;9.15;;;15.90;55.10;;;;;;4918488;29;20052;-75
2020/12/28 06:52:32;;;;;;;18.40;10.05;;;15.90;55.00;;;;;;4918423;29;20048;-78
2020/12/28 06:55:10;;;;;;;15.52;7.10;;;15.90;54.80;;;;;;4920189;29;20052;-76
2020/12/28 06:57:37;;;;;;;15.55;6.15;;;16.00;55.40;;;;;;4936877;29;20356;-77
2020/12/28 07:00:20;;;;;;;18.02;6.55;;;16.20;55.50;;;;;;4937453;29;20040;-77
2020/12/28 07:02:50;;;;;;;11.55;6.18;;;16.40;55.60;;;;;;4936704;29;20092;-76
2020/12/28 07:05:24;;;;;;;15.02;6.32;;;16.50;55.60;;;;;;4937179;29;20115;-78
2020/12/28 07:07:50;;;;;;;13.45;5.70;;;16.60;55.50;;;;;;4937637;29;20052;-79
2020/12/28 07:10:18;;;;;;;17.13;6.05;;;16.70;55.40;;;;;;4937278;29;20040;-75
2020/12/28 07:12:45;;;;;;;9.35;5.53;;;16.80;55.70;;;;;;4937433;29;20043;-79
2020/12/28 07:15:11;;;;;;;12.50;5.47;;;16.80;55.70;;;;;;4937136;29;20048;-77
2020/12/28 07:17:37;;;;;;;11.05;5.63;;;16.90;55.80;;;;;;4937548;29;20078;-76
2020/12/28 07:20:11;;;;;;;14.45;6.40;;;17.00;55.70;;;;;;4936331;29;20074;-75
2020/12/28 07:22:41;;;;;;;12.15;5.82;;;17.00;55.70;;;;;;4936981;29;20048;-76
2020/12/28 07:25:09;;;;;;;10.90;5.40;;;17.00;55.70;;;;;;4937136;29;20054;-75
2020/12/28 07:27:36;;;;;;;11.82;4.88;;;17.00;55.80;;;;;;4936779;29;20058;-75
2020/12/28 07:30:10;;;;;;;11.52;5.97;;;17.10;55.90;;;;;;4939891;29;20522;-76
2020/12/28 07:32:36;;;;;;;11.30;4.90;;;17.10;56.10;;;;;;4940723;29;20126;-75
2020/12/28 07:35:03;;;;;;;6.97;4.85;;;17.20;56.00;;;;;;4940194;29;20051;-76
2020/12/28 07:37:30;;;;;;;11.70;5.10;;;17.20;56.00;;;;;;4940816;29;20082;-76
2020/12/28 07:39:57;;;;;;;10.23;5.13;;;17.30;56.00;;;;;;4940541;29;20043;-74
2020/12/28 07:42:24;;;;;;;6.60;4.47;;;17.40;56.00;;;;;;4940179;29;20387;-76
2020/12/28 07:45:03;;;;;;;7.32;4.47;;;17.40;55.90;;;;;;4922417;29;20055;-76
2020/12/28 07:47:40;;;;;;;6.53;4.40;;;17.50;55.90;;;;;;4921498;29;20457;-74
2020/12/28 07:50:09;;;;;;;7.38;4.38;;;17.50;55.80;;;;;;4932843;29;20376;-77
2020/12/28 07:53:09;;;;;;;7.30;3.83;;;17.60;55.70;;;;;;4940443;29;20118;-76
2020/12/28 07:56:06;;;;;;;8.77;4.10;;;17.60;55.80;;;;;;4936381;29;20139;-77
2020/12/28 07:59:08;;;;;;;8.27;4.32;;;17.70;55.80;;;;;;4900271;29;20072;-75
2020/12/28 08:01:48;;;;;;;8.63;4.38;;;17.70;55.70;;;;;;4923215;29;20039;-76
2020/12/28 08:04:24;;;;;;;7.18;4.30;;;17.70;55.50;;;;;;4911803;29;20060;-76
2020/12/28 08:06:50;;;;;;;8.45;4.47;;;17.70;55.40;;;;;;4917054;29;20055;-76
2020/12/28 08:09:25;;;;;;;12.73;4.03;;;17.70;55.40;;;;;;4927588;29;20447;-77
2020/12/28 08:12:01;;;;;;;9.98;4.60;;;17.70;55.30;;;;;;4918194;29;20063;-76
2020/12/28 08:14:28;;;;;;;10.43;4.28;;;17.80;55.20;;;;;;4920871;29;20044;-80
2020/12/28 08:16:54;;;;;;;11.60;3.72;;;17.70;55.10;;;;;;4917860;29;20040;-75
2020/12/28 08:19:27;;;;;;;12.75;4.07;;;17.70;55.20;;;;;;4920035;29;20064;-79
2020/12/28 08:21:53;;;;;;;9.30;4.50;;;17.70;55.20;;;;;;4921030;29;20127;-77
2020/12/28 08:24:21;;;;;;;12.35;4.95;;;17.70;55.10;;;;;;4923655;29;20440;-77
2020/12/28 08:26:48;;;;;;;13.60;4.80;;;17.70;54.90;;;;;;4920974;29;20078;-78
2020/12/28 08:29:14;;;;;;;15.02;4.57;;;17.70;54.60;;;;;;4920380;29;20063;-79
2020/12/28 08:31:41;;;;;;;10.90;4.50;;;17.70;54.60;;;;;;4921429;29;20040;-79
2020/12/28 08:34:11;;;;;;;10.52;4.50;;;17.70;54.70;;;;;;4920424;29;20048;-79
2020/12/28 08:36:55;;;;;;;9.77;4.15;;;17.80;54.70;;;;;;4903676;29;20071;-77
2020/12/28 08:39:24;;;;;;;12.07;4.00;;;17.80;54.70;;;;;;4919062;29;20044;-79
2020/12/28 08:41:55;;;;;;;14.85;4.38;;;17.90;54.60;;;;;;4917535;29;20135;-77
2020/12/28 08:44:35;;;;;;;12.57;4.03;;;18.00;54.60;;;;;;4919424;29;20052;-76
2020/12/28 08:47:08;;;;;;;15.63;5.20;;;18.00;54.60;;;;;;4920398;29;20052;-78
2020/12/28 08:49:35;;;;;;;14.67;4.17;;;18.00;55.30;;;;;;4919326;29;20036;-79
2020/12/28 08:52:11;;;;;;;17.80;4.63;;;17.90;54.60;;;;;;4936309;29;20371;-77
2020/12/28 08:54:38;;;;;;;13.65;4.18;;;17.90;54.50;;;;;;4938872;29;20440;-77
2020/12/28 08:57:04;;;;;;;10.45;3.88;;;17.80;54.60;;;;;;4937481;29;20091;-79
2020/12/28 08:59:30;;;;;;;10.57;4.53;;;17.80;54.60;;;;;;4915060;29;20123;-74
2020/12/28 09:01:56;;;;;;;11.85;4.30;;;17.80;54.80;;;;;;4923117;29;20044;-72
2020/12/28 09:04:24;;;;;;;9.68;4.32;;;17.70;54.90;;;;;;4922802;29;20852;-73
2020/12/28 09:06:56;;;;;;;10.90;5.60;;;17.70;55.30;;;;;;4910840;29;20040;-77
2020/12/28 09:09:22;;;;;;;13.45;4.47;;;17.60;55.00;;;;;;4911969;29;20044;-77
2020/12/28 09:11:48;;;;;;;8.27;4.85;;;17.60;55.10;;;;;;4922306;29;20420;-74
2020/12/28 09:14:14;;;;;;;8.98;4.63;;;17.50;55.10;;;;;;4932241;29;20097;-76
2020/12/28 09:16:40;;;;;;;12.48;5.82;;;17.50;55.10;;;;;;4937616;29;20039;-77
2020/12/28 09:19:05;;;;;;;17.63;5.80;;;17.50;55.10;;;;;;4937687;29;20352;-76
2020/12/28 09:21:32;;;;;;;12.95;5.30;;;17.40;55.20;;;;;;4919797;29;20082;-76
2020/12/28 09:23:58;;;;;;;13.27;5.20;;;17.40;55.20;;;;;;4919408;29;20075;-76
2020/12/28 09:26:23;;;;;;;12.55;5.22;;;17.40;55.20;;;;;;4936841;29;20470;-79
2020/12/28 09:28:49;;;;;;;11.23;4.78;;;17.40;55.40;;;;;;4925763;29;20082;-78
2020/12/28 09:31:16;;;;;;;11.98;4.97;;;17.40;55.20;;;;;;4919965;29;20048;-79
2020/12/28 09:33:42;;;;;;;14.18;4.68;;;17.50;55.40;;;;;;4930992;29;20079;-77
2020/12/28 09:36:07;;;;;;;12.57;4.47;;;17.50;55.60;;;;;;4927134;29;20062;-79
2020/12/28 09:38:33;;;;;;;16.42;4.78;;;17.50;55.50;;;;;;4925830;29;20043;-79
2020/12/28 09:40:59;;;;;;;10.40;4.88;;;17.50;55.50;;;;;;4937108;29;20058;-76
2020/12/28 09:43:25;;;;;;;12.80;4.78;;;17.60;55.50;;;;;;4918054;29;20048;-78
2020/12/28 09:45:51;;;;;;;14.43;4.60;;;17.60;55.60;;;;;;4914054;29;20040;-79
2020/12/28 09:48:17;;;;;;;16.52;4.13;;;17.60;55.70;;;;;;4916978;29;20048;-79
2020/12/28 09:50:43;;;;;;;14.65;4.63;;;17.60;55.60;;;;;;4909459;29;20044;-82
2020/12/28 09:53:09;;;;;;;12.15;4.65;;;17.60;55.60;;;;;;4900516;29;20037;-79
2020/12/28 09:55:35;;;;;;;10.20;4.43;;;17.60;55.70;;;;;;4926166;29;20071;-81
2020/12/28 09:58:13;;;;;;;9.55;3.90;;;17.60;55.60;;;;;;4936718;29;20410;-79
2020/12/28 10:00:42;;;;;;;10.73;3.33;;;17.60;55.60;;;;;;4919615;29;20044;-80
2020/12/28 10:03:17;;;;;;;6.50;3.65;;;17.60;55.70;;;;;;4921775;29;20387;-80
2020/12/28 10:05:43;;;;;;;10.88;3.95;;;17.60;55.70;;;;;;4920390;29;20058;-79
2020/12/28 10:08:12;;;;;;;6.70;3.40;;;17.60;55.70;;;;;;4936665;29;20439;-77
2020/12/28 10:10:38;;;;;;;10.38;3.05;;;17.70;55.80;;;;;;4937578;29;20067;-79
2020/12/28 10:13:07;;;;;;;12.23;3.45;;;17.70;55.80;;;;;;4936986;29;20376;-79
2020/12/28 10:15:32;;;;;;;15.85;2.95;;;17.80;55.90;;;;;;4936242;29;20043;-78
2020/12/28 10:18:20;;;;;;;18.58;3.85;;;17.80;56.50;;;;;;4920936;29;20122;-78
2020/12/28 10:20:46;;;;;;;13.20;2.88;;;17.90;55.90;;;;;;4936223;29;20115;-76
2020/12/28 10:23:12;;;;;;;12.35;3.28;;;17.90;55.90;;;;;;4937010;29;20044;-76
2020/12/28 10:25:38;;;;;;;17.00;3.08;;;17.90;55.90;;;;;;4937451;29;20043;-76
2020/12/28 10:28:04;;;;;;;11.02;3.28;;;17.90;55.90;;;;;;4936952;29;20058;-74
2020/12/28 10:30:30;;;;;;;8.25;2.70;;;17.80;56.40;;;;;;4937818;29;20043;-76
2020/12/28 10:32:56;;;;;;;12.20;2.80;;;17.80;55.60;;;;;;4937624;29;20151;-75
2020/12/28 10:35:22;;;;;;;8.40;2.80;;;17.80;55.40;;;;;;4937561;29;20122;-74
2020/12/28 10:37:48;;;;;;;7.03;2.55;;;17.80;55.30;;;;;;4937699;29;20372;-76
2020/12/28 10:40:15;;;;;;;9.48;2.47;;;17.70;55.20;;;;;;4937641;29;20371;-74
2020/12/28 10:42:41;;;;;;;8.00;2.30;;;17.70;55.10;;;;;;4938067;29;20040;-75
2020/12/28 10:45:07;;;;;;;8.30;2.72;;;17.70;55.10;;;;;;4937788;29;20447;-77
2020/12/28 10:47:33;;;;;;;6.15;1.98;;;17.70;55.10;;;;;;4938377;29;20122;-77
2020/12/28 10:49:58;;;;;;;8.80;2.58;;;17.60;54.90;;;;;;4936906;29;20396;-74
2020/12/28 10:52:24;;;;;;;5.60;2.20;;;17.60;55.00;;;;;;4937929;29;20071;-74
2020/12/28 10:54:50;;;;;;;6.28;2.03;;;17.60;54.90;;;;;;4937187;28;20059;-76
2020/12/28 10:57:16;;;;;;;6.10;1.98;;;17.60;55.00;;;;;;4937693;29;20126;-76
2020/12/28 10:59:42;;;;;;;6.68;2.10;;;17.50;55.00;;;;;;4937753;29;20043;-75
2020/12/28 11:02:07;;;;;;;5.70;1.73;;;17.50;55.00;;;;;;4938035;29;20048;-76
2020/12/28 11:04:33;;;;;;;5.85;2.15;;;17.50;54.90;;;;;;4941298;29;20079;-75
2020/12/28 11:06:59;;;;;;;5.38;1.70;;;17.40;54.80;;;;;;4940945;29;20044;-75
2020/12/28 11:09:25;;;;;;;4.47;1.75;;;17.40;54.80;;;;;;4941311;29;20135;-76
2020/12/28 11:11:53;;;;;;;4.13;1.85;;;17.40;54.80;;;;;;4941429;29;20047;-74
2020/12/28 11:14:20;;;;;;;3.83;1.58;;;17.40;54.80;;;;;;4941722;29;20134;-75
2020/12/28 11:16:47;;;;;;;5.65;2.42;;;17.30;54.70;;;;;;4941219;29;20048;-75
2020/12/28 11:19:13;;;;;;;5.03;2.05;;;17.30;54.70;;;;;;4940625;29;20359;-75
2020/12/28 11:21:39;;;;;;;7.10;2.40;;;17.30;54.70;;;;;;4940414;29;20054;-72
2020/12/28 11:24:05;;;;;;;4.43;2.05;;;17.20;54.70;;;;;;4940613;29;20067;-75
2020/12/28 11:26:35;;;;;;;7.68;2.20;;;17.20;54.70;;;;;;4940649;29;20498;-74
2020/12/28 11:29:06;;;;;;;5.80;2.13;;;17.20;54.70;;;;;;4940832;29;20048;-76
2020/12/28 11:31:32;;;;;;;6.75;2.22;;;17.10;54.60;;;;;;4940320;29;20054;-74
2020/12/28 11:33:58;;;;;;;8.65;2.22;;;17.20;54.60;;;;;;4940304;29;20044;-73
2020/12/28 11:36:24;;;;;;;4.18;2.40;;;17.10;54.60;;;;;;4940582;29;20055;-72
2020/12/28 11:38:50;;;;;;;3.85;1.63;;;17.10;54.60;;;;;;4940750;29;20044;-73
2020/12/28 11:41:17;;;;;;;3.53;1.73;;;17.10;54.60;;;;;;4940372;29;20062;-75
2020/12/28 11:43:44;;;;;;;4.47;1.83;;;17.10;54.60;;;;;;4940784;29;20048;-74
2020/12/28 11:46:10;;;;;;;3.88;1.67;;;17.00;54.60;;;;;;4940538;29;20118;-75
2020/12/28 11:48:37;;;;;;;4.90;2.03;;;17.00;54.50;;;;;;4940860;29;20131;-75
2020/12/28 11:51:04;;;;;;;4.68;2.25;;;17.00;54.60;;;;;;4939958;29;20127;-75
2020/12/28 11:53:39;;;;;;;4.68;2.15;;;17.00;54.60;;;;;;4940879;29;20047;-75
2020/12/28 11:56:11;;;;;;;2.60;1.80;;;16.90;55.10;;;;;;4940299;29;20055;-73
2020/12/28 11:58:39;;;;;;;3.65;2.00;;;16.90;54.50;;;;;;4940175;29;20051;-75
2020/12/28 12:01:14;;;;;;;5.07;2.20;;;16.90;54.60;;;;;;4940425;29;20119;-73
2020/12/28 12:03:41;;;;;;;4.00;1.85;;;16.80;54.40;;;;;;4940699;29;20059;-74
2020/12/28 12:06:16;;;;;;;4.45;2.40;;;16.80;54.40;;;;;;4940382;29;20077;-75
2020/12/28 12:09:29;;;;;;;4.32;2.67;;;16.80;54.40;;;;;;4940214;29;20051;-75
2020/12/28 12:11:31;;;;;;;4.22;2.33;;;16.70;54.40;;;;;;4927212;29;20064;-76
2020/12/28 12:13:57;;;;;;;4.05;1.98;;;16.70;54.30;;;;;;4939444;29;20078;-75
2020/12/28 12:16:25;;;;;;;4.05;1.65;;;16.70;54.30;;;;;;4940040;29;20075;-73
2020/12/28 12:18:51;;;;;;;2.25;1.60;;;16.70;54.30;;;;;;4939653;29;20039;-75
2020/12/28 12:21:17;;;;;;;5.25;1.92;;;16.70;54.30;;;;;;4939312;29;20048;-74
2020/12/28 12:23:44;;;;;;;4.10;2.25;;;16.60;54.20;;;;;;4939545;29;20059;-73
2020/12/28 12:26:10;;;;;;;3.78;2.05;;;16.60;54.20;;;;;;4923008;29;20043;-73
2020/12/28 12:28:36;;;;;;;3.47;1.85;;;16.60;54.20;;;;;;4940020;29;20048;-74
2020/12/28 12:31:03;;;;;;;4.07;1.83;;;16.60;54.20;;;;;;4939587;29;20048;-75
2020/12/28 12:33:29;;;;;;;3.30;2.05;;;16.60;54.20;;;;;;4939306;29;20062;-74
2020/12/28 12:35:55;;;;;;;4.10;1.95;;;16.50;54.20;;;;;;4939568;29;20456;-74
2020/12/28 12:38:21;;;;;;;5.28;2.03;;;16.50;54.20;;;;;;4922773;29;20048;-73
2020/12/28 12:40:47;;;;;;;3.15;1.67;;;16.50;54.20;;;;;;4939887;29;20051;-75
2020/12/28 12:43:13;;;;;;;4.47;1.75;;;16.50;54.90;;;;;;4939532;29;20062;-74
2020/12/28 12:45:38;;;;;;;3.45;1.80;;;16.50;54.30;;;;;;4939629;29;20044;-76
2020/12/28 12:48:04;;;;;;;3.78;1.92;;;16.40;54.30;;;;;;4939624;29;20052;-75